Terminal Aerodrome Forecast
Issued by NWS Charleston, WV

Current Version | Previous Version | Graphics & Text | Print | Product List | Glossary On
Versions: 1 2 3 4 5 6 7 8 9 10 11 12 13 14 15 16 17 18 19 20 21
000
FTUS41 KRLX 222300 RRA
TAFBKW
TAF
KBKW 222344Z 2300/2324 16005KT P6SM SCT200
     FM231100 16003KT P6SM BKN100
     FM231400 16007KT P6SM BKN150
     FM231500 16010G18KT P6SM BKN150
     FM231800 15012G23KT P6SM BKN015
     FM232000 15013G26KT 6SM -SHRA OVC015
     FM232100 14013G28KT 5SM -SHRA BR OVC015
     FM232300 13014G31KT 5SM -SHRA BR SCT004 OVC010=

USA.gov is the U.S. government's official web portal to all federal, state and local government web resources and services.